createdAt,value
2018-05-25T00:00:38.771Z,70.70
2018-05-25T00:01:38.761Z,71.76
2018-05-25T00:02:38.756Z,70.42
2018-05-25T00:03:38.752Z,69.93
2018-05-25T00:04:38.755Z,69.46
2018-05-25T00:05:38.748Z,69.56
2018-05-25T00:06:38.742Z,69.56
2018-05-25T00:07:38.737Z,69.36
2018-05-25T00:08:38.729Z,69.26
2018-05-25T00:09:38.727Z,69.26
2018-05-25T00:10:38.718Z,69.46
2018-05-25T00:11:38.717Z,69.26
2018-05-25T00:12:38.709Z,69.26
2018-05-25T00:13:38.708Z,69.56
2018-05-25T00:14:38.704Z,69.56
2018-05-25T00:15:38.697Z,68.98
2018-05-25T00:16:38.690Z,68.98
2018-05-25T00:17:38.690Z,69.07
2018-05-25T00:18:38.686Z,68.88
2018-05-25T00:19:38.675Z,68.79
2018-05-25T00:20:38.675Z,69.93
2018-05-25T00:21:38.673Z,68.88
2018-05-25T00:22:38.663Z,68.79
2018-05-25T00:23:38.660Z,68.79
2018-05-25T00:24:38.660Z,69.07
2018-05-25T00:25:38.651Z,69.07
2018-05-25T00:26:38.651Z,68.69
2018-05-25T00:27:38.644Z,68.98
2018-05-25T00:28:38.637Z,68.40
2018-05-25T00:29:38.633Z,69.07
2018-05-25T00:30:38.631Z,68.59
2018-05-25T00:31:38.661Z,68.50
2018-05-25T00:32:38.621Z,68.21
2018-05-25T00:33:38.616Z,68.69
2018-05-25T00:34:38.608Z,68.40
2018-05-25T00:35:38.605Z,68.59
2018-05-25T00:36:38.599Z,68.21
2018-05-25T00:37:38.593Z,68.12
2018-05-25T00:38:38.588Z,68.69
2018-05-25T00:39:38.583Z,68.59
2018-05-25T00:40:38.580Z,68.50
2018-05-25T00:41:38.577Z,68.21
2018-05-25T00:42:38.571Z,68.21
2018-05-25T00:43:38.565Z,68.30
2018-05-25T00:44:38.587Z,68.59
2018-05-25T00:45:38.556Z,68.40
2018-05-25T00:46:38.548Z,68.40
2018-05-25T00:47:38.548Z,67.73
2018-05-25T00:48:38.562Z,67.54
2018-05-25T00:49:38.564Z,67.44
2018-05-25T00:50:38.532Z,67.44
2018-05-25T00:51:38.532Z,67.63
2018-05-25T00:52:38.522Z,67.73
2018-05-25T00:53:38.520Z,67.83
2018-05-25T00:54:38.518Z,67.63
2018-05-25T00:55:38.510Z,67.73
2018-05-25T00:56:38.505Z,68.02
2018-05-25T00:57:38.513Z,67.92
2018-05-25T00:58:38.494Z,68.30
2018-05-25T00:59:38.492Z,68.02
2018-05-25T01:00:38.489Z,67.44
2018-05-25T01:01:38.489Z,68.21
2018-05-25T01:02:38.474Z,67.06
2018-05-25T01:03:38.470Z,67.41
2018-05-25T01:04:38.466Z,67.83
2018-05-25T01:05:38.470Z,67.92
2018-05-25T01:06:38.457Z,67.44
2018-05-25T01:07:38.452Z,67.54
2018-05-25T01:08:38.449Z,67.92
2018-05-25T01:09:38.443Z,67.16
2018-05-25T01:10:38.436Z,66.86
2018-05-25T01:11:38.438Z,66.58
2018-05-25T01:12:38.426Z,66.29
2018-05-25T01:13:38.419Z,66.35
2018-05-25T01:14:38.417Z,66.06
2018-05-25T01:15:38.416Z,65.11
2018-05-25T01:16:38.411Z,65.20
2018-05-25T01:17:38.405Z,64.92
2018-05-25T01:18:38.396Z,65.01
2018-05-25T01:19:38.394Z,63.76
2018-05-25T01:20:38.387Z,63.00
2018-05-25T01:21:38.381Z,62.13
2018-05-25T01:22:38.380Z,62.42
2018-05-25T01:23:38.372Z,61.18
2018-05-25T01:24:38.378Z,60.60
2018-05-25T01:25:38.363Z,60.89
2018-05-25T01:26:38.357Z,60.99
2018-05-25T01:27:38.356Z,61.37
2018-05-25T01:28:38.351Z,60.50
2018-05-25T01:29:38.348Z,59.93
2018-05-25T01:30:38.340Z,60.31
2018-05-25T01:31:38.332Z,60.31
2018-05-25T01:32:38.330Z,60.89
2018-05-25T01:33:38.325Z,60.31
2018-05-25T01:34:38.322Z,59.83
2018-05-25T01:35:38.332Z,59.83
2018-05-25T01:36:38.312Z,60.03
2018-05-25T01:37:38.312Z,59.83
2018-05-25T01:38:38.295Z,60.41
2018-05-25T01:39:38.293Z,59.64
2018-05-25T01:40:38.290Z,60.12
2018-05-25T01:41:38.289Z,59.74
2018-05-25T01:42:38.281Z,59.45
2018-05-25T01:43:38.276Z,59.45
2018-05-25T01:44:38.268Z,59.74
2018-05-25T01:45:38.262Z,60.00
2018-05-25T01:46:38.271Z,59.93
2018-05-25T01:47:38.256Z,59.64
2018-05-25T01:48:38.250Z,59.64
2018-05-25T01:49:38.244Z,59.16
2018-05-25T01:50:38.241Z,59.45
2018-05-25T01:51:38.238Z,59.74
2018-05-25T01:52:38.228Z,59.93
2018-05-25T01:53:38.222Z,59.93
2018-05-25T01:54:38.219Z,59.61
2018-05-25T01:55:38.215Z,59.61
2018-05-25T01:56:38.210Z,59.23
2018-05-25T01:57:38.207Z,59.04
2018-05-25T01:58:38.206Z,59.83
2018-05-25T01:59:38.212Z,59.61
2018-05-25T02:00:38.192Z,59.06
2018-05-25T02:01:38.192Z,59.26
2018-05-25T02:02:38.177Z,58.84
2018-05-25T02:03:38.182Z,59.42
2018-05-25T02:04:38.167Z,59.61
2018-05-25T02:05:38.161Z,59.33
2018-05-25T02:06:38.155Z,58.46
2018-05-25T02:07:38.153Z,58.46
2018-05-25T02:08:38.159Z,59.04
2018-05-25T02:09:38.148Z,58.37
2018-05-25T02:10:38.143Z,58.65
2018-05-25T02:11:38.141Z,58.56
2018-05-25T02:12:38.124Z,58.37
2018-05-25T02:13:38.125Z,58.39
2018-05-25T02:14:38.115Z,57.60
2018-05-25T02:15:38.112Z,57.82
2018-05-25T02:16:38.108Z,57.50
2018-05-25T02:17:38.099Z,57.34
2018-05-25T02:18:38.095Z,58.27
2018-05-25T02:19:38.095Z,59.04
2018-05-25T02:20:38.087Z,58.46
2018-05-25T02:21:38.082Z,58.37
2018-05-25T02:22:38.077Z,57.79
2018-05-25T02:23:38.070Z,58.17
2018-05-25T02:24:38.072Z,57.70
2018-05-25T02:25:38.061Z,57.50
2018-05-25T02:26:38.054Z,58.37
2018-05-25T02:27:38.052Z,57.89
2018-05-25T02:28:38.046Z,57.70
2018-05-25T02:29:38.044Z,58.08
2018-05-25T02:30:38.041Z,57.70
2018-05-25T02:31:38.033Z,58.27
2018-05-25T02:32:38.036Z,57.98
2018-05-25T02:33:38.034Z,58.17
2018-05-25T02:34:38.016Z,58.27
2018-05-25T02:35:38.008Z,58.75
2018-05-25T02:36:38.006Z,58.37
2018-05-25T02:37:38.004Z,58.17
2018-05-25T02:38:38.046Z,58.37
2018-05-25T02:39:37.991Z,58.37
2018-05-25T02:40:37.981Z,57.60
2018-05-25T02:41:37.976Z,58.08
2018-05-25T02:42:37.995Z,58.27
2018-05-25T02:43:37.971Z,57.98
2018-05-25T02:44:37.970Z,57.79
2018-05-25T02:45:37.961Z,57.70
2018-05-25T02:46:37.949Z,57.70
2018-05-25T02:47:37.950Z,58.37
2018-05-25T02:48:37.944Z,58.30
2018-05-25T02:49:37.964Z,57.43
2018-05-25T02:50:37.933Z,57.63
2018-05-25T02:51:37.943Z,57.31
2018-05-25T02:52:37.926Z,57.60
2018-05-25T02:53:37.919Z,57.60
2018-05-25T02:54:37.908Z,57.50
2018-05-25T02:55:37.906Z,57.41
2018-05-25T02:56:37.903Z,57.21
2018-05-25T02:57:37.899Z,57.12
2018-05-25T02:58:37.895Z,57.03
2018-05-25T02:59:37.890Z,56.54
2018-05-25T03:00:37.883Z,56.83
2018-05-25T03:01:37.878Z,56.64
2018-05-25T03:02:37.869Z,56.54
2018-05-25T03:03:37.866Z,57.21
2018-05-25T03:04:37.863Z,56.16
2018-05-25T03:05:37.857Z,56.26
2018-05-25T03:06:37.856Z,56.16
2018-05-25T03:07:37.849Z,55.87
2018-05-25T03:08:37.858Z,55.68
2018-05-25T03:09:37.835Z,55.30
2018-05-25T03:10:37.859Z,55.58
2018-05-25T03:11:37.862Z,55.21
2018-05-25T03:12:37.847Z,55.40
2018-05-25T03:13:37.825Z,55.11
2018-05-25T03:14:37.809Z,54.53
2018-05-25T03:15:37.802Z,55.11
2018-05-25T03:16:37.797Z,54.24
2018-05-25T03:17:37.802Z,55.21
2018-05-25T03:18:37.795Z,54.82
2018-05-25T03:19:37.787Z,54.24
2018-05-25T03:20:37.783Z,54.15
2018-05-25T03:21:37.774Z,54.24
2018-05-25T03:22:37.767Z,54.24
2018-05-25T03:23:37.765Z,54.15
2018-05-25T03:24:37.755Z,54.44
2018-05-25T03:25:37.756Z,55.11
2018-05-25T03:26:37.750Z,53.96
2018-05-25T03:27:37.745Z,54.15
2018-05-25T03:28:37.741Z,54.63
2018-05-25T03:29:37.731Z,54.44
2018-05-25T03:30:37.723Z,54.53
2018-05-25T03:31:37.720Z,54.34
2018-05-25T03:32:37.713Z,54.53
2018-05-25T03:33:37.715Z,54.63
2018-05-25T03:34:37.708Z,53.38
2018-05-25T03:35:37.706Z,53.83
2018-05-25T03:36:37.696Z,53.86
2018-05-25T03:37:37.688Z,53.96
2018-05-25T03:38:37.682Z,53.77
2018-05-25T03:39:37.679Z,54.22
2018-05-25T03:40:37.677Z,54.50
2018-05-25T03:41:37.670Z,53.96
2018-05-25T03:42:37.664Z,53.58
2018-05-25T03:43:37.656Z,53.77
2018-05-25T03:44:37.653Z,54.34
2018-05-25T03:45:37.650Z,54.05
2018-05-25T03:46:37.639Z,53.96
2018-05-25T03:47:37.642Z,53.83
2018-05-25T03:48:37.640Z,53.45
2018-05-25T03:49:37.635Z,53.74
2018-05-25T03:50:37.622Z,53.86
2018-05-25T03:51:37.619Z,53.48
2018-05-25T03:52:37.612Z,54.24
2018-05-25T03:53:37.609Z,54.34
2018-05-25T03:54:37.598Z,54.15
2018-05-25T03:55:37.596Z,54.24
2018-05-25T03:56:39.151Z,54.24
2018-05-25T03:57:37.593Z,54.44
2018-05-25T03:58:37.576Z,53.77
2018-05-25T03:59:37.577Z,54.53
2018-05-25T04:00:37.569Z,54.63
2018-05-25T04:01:37.592Z,55.11
2018-05-25T04:02:37.559Z,54.72
2018-05-25T04:03:37.551Z,55.40
2018-05-25T04:04:37.549Z,55.40
2018-05-25T04:05:37.543Z,56.54
2018-05-25T04:06:37.534Z,55.30
2018-05-25T04:07:37.533Z,55.49
2018-05-25T04:08:37.528Z,55.87
2018-05-25T04:09:37.525Z,55.68
2018-05-25T04:10:37.523Z,55.68
2018-05-25T04:11:37.513Z,56.16
2018-05-25T04:12:37.504Z,55.97
2018-05-25T04:13:37.500Z,56.35
2018-05-25T04:14:37.493Z,56.45
2018-05-25T04:15:37.508Z,56.45
2018-05-25T04:16:37.497Z,56.74
2018-05-25T04:17:37.484Z,56.45
2018-05-25T04:18:37.479Z,56.26
2018-05-25T04:19:37.472Z,55.97
2018-05-25T04:20:37.463Z,56.54
2018-05-25T04:21:37.462Z,56.45
2018-05-25T04:22:37.457Z,56.54
2018-05-25T04:23:37.456Z,56.35
2018-05-25T04:24:37.446Z,55.68
2018-05-25T04:25:37.438Z,56.26
2018-05-25T04:26:37.434Z,56.74
2018-05-25T04:27:37.433Z,56.54
2018-05-25T04:28:37.424Z,56.74
2018-05-25T04:29:37.422Z,56.35
2018-05-25T04:30:37.420Z,55.97
2018-05-25T04:31:37.410Z,56.35
2018-05-25T04:32:37.401Z,56.54
2018-05-25T04:33:37.407Z,56.26
2018-05-25T04:34:37.393Z,56.35
2018-05-25T04:35:37.412Z,56.35
2018-05-25T04:36:37.383Z,56.54
2018-05-25T04:37:37.380Z,56.45
2018-05-25T04:38:37.375Z,56.54
2018-05-25T04:39:37.387Z,56.35
2018-05-25T04:40:37.363Z,56.35
2018-05-25T04:41:37.357Z,56.45
2018-05-25T04:42:37.355Z,55.78
2018-05-25T04:43:37.357Z,55.40
2018-05-25T04:44:37.347Z,56.26
2018-05-25T04:45:37.340Z,56.07
2018-05-25T04:46:37.331Z,56.93
2018-05-25T04:47:37.326Z,57.31
2018-05-25T04:48:37.325Z,57.03
2018-05-25T04:49:37.319Z,56.83
2018-05-25T04:50:37.321Z,57.31
2018-05-25T04:51:37.310Z,57.41
2018-05-25T04:52:37.306Z,57.60
2018-05-25T04:53:37.300Z,57.41
2018-05-25T04:54:37.292Z,57.03
2018-05-25T04:55:37.294Z,57.41
2018-05-25T04:56:37.281Z,57.41
2018-05-25T04:57:37.278Z,57.60
2018-05-25T04:58:37.275Z,57.60
2018-05-25T04:59:37.276Z,57.60
2018-05-25T05:00:37.269Z,57.53
2018-05-25T05:01:37.258Z,57.98
2018-05-25T05:02:37.253Z,58.08
2018-05-25T05:03:37.248Z,58.39
2018-05-25T05:04:37.248Z,58.08
2018-05-25T05:05:37.243Z,58.56
2018-05-25T05:06:37.237Z,59.04
2018-05-25T05:07:37.231Z,59.26
2018-05-25T05:08:37.230Z,59.04
2018-05-25T05:09:37.220Z,59.64
2018-05-25T05:10:37.215Z,59.55
2018-05-25T05:11:37.213Z,59.45
2018-05-25T05:12:37.206Z,59.55
2018-05-25T05:13:37.203Z,60.12
2018-05-25T05:14:37.203Z,59.93
2018-05-25T05:15:37.190Z,60.50
2018-05-25T05:16:37.184Z,59.93
2018-05-25T05:17:37.187Z,60.31
2018-05-25T05:18:37.179Z,60.03
2018-05-25T05:19:37.172Z,60.12
2018-05-25T05:20:37.165Z,59.83
2018-05-25T05:21:37.163Z,60.03
2018-05-25T05:22:37.165Z,59.64
2018-05-25T05:23:37.150Z,60.50
2018-05-25T05:24:37.144Z,60.50
2018-05-25T05:25:37.149Z,60.12
2018-05-25T05:26:37.138Z,60.60
2018-05-25T05:27:37.135Z,60.22
2018-05-25T05:28:37.125Z,60.03
2018-05-25T05:29:37.130Z,60.31
2018-05-25T05:30:37.126Z,60.03
2018-05-25T05:31:37.121Z,59.64
2018-05-25T05:32:37.121Z,60.60
2018-05-25T05:33:37.124Z,59.64
2018-05-25T05:34:37.110Z,59.74
2018-05-25T05:35:37.097Z,59.83
2018-05-25T05:36:37.093Z,60.03
2018-05-25T05:37:37.088Z,59.93
2018-05-25T05:38:37.080Z,60.31
2018-05-25T05:39:37.077Z,60.41
2018-05-25T05:40:37.073Z,60.03
2018-05-25T05:41:37.069Z,59.93
2018-05-25T05:42:37.055Z,60.22
2018-05-25T05:43:37.055Z,60.12
2018-05-25T05:44:37.050Z,60.03
2018-05-25T05:45:37.060Z,60.89
2018-05-25T05:46:37.052Z,60.70
2018-05-25T05:47:37.039Z,61.27
2018-05-25T05:48:37.075Z,61.49
2018-05-25T05:49:37.027Z,61.30
2018-05-25T05:50:37.022Z,62.55
2018-05-25T05:51:37.018Z,61.98
2018-05-25T05:52:37.014Z,63.12
2018-05-25T05:53:37.011Z,62.45
2018-05-25T05:54:37.006Z,62.55
2018-05-25T05:55:37.017Z,62.55
2018-05-25T05:56:36.998Z,62.93
2018-05-25T05:57:36.996Z,63.12
2018-05-25T05:58:36.987Z,63.42
2018-05-25T05:59:36.980Z,63.99
2018-05-25T06:00:36.980Z,63.51
2018-05-25T06:01:36.975Z,63.70
2018-05-25T06:02:36.971Z,63.03
2018-05-25T06:03:36.969Z,63.79
2018-05-25T06:04:36.957Z,64.09
2018-05-25T06:05:36.955Z,63.22
2018-05-25T06:06:36.955Z,63.89
2018-05-25T06:07:36.949Z,63.83
2018-05-25T06:08:36.950Z,64.50
2018-05-25T06:09:36.939Z,64.59
2018-05-25T06:10:36.932Z,64.79
2018-05-25T06:11:36.928Z,64.50
2018-05-25T06:12:36.925Z,64.50
2018-05-25T06:13:36.919Z,64.50
2018-05-25T06:14:36.922Z,64.89
2018-05-25T06:15:36.925Z,64.59
2018-05-25T06:16:36.909Z,64.89
2018-05-25T06:17:36.902Z,65.27
2018-05-25T06:18:36.901Z,65.17
2018-05-25T06:19:36.896Z,65.08
2018-05-25T06:20:36.894Z,65.65
2018-05-25T06:21:36.896Z,65.56
2018-05-25T06:22:36.883Z,65.36
2018-05-25T06:23:36.885Z,64.98
2018-05-25T06:24:36.880Z,66.33
2018-05-25T06:25:36.890Z,66.03
2018-05-25T06:26:36.870Z,67.80
2018-05-25T06:27:36.864Z,66.93
2018-05-25T06:28:36.869Z,67.22
2018-05-25T06:29:36.859Z,66.74
2018-05-25T06:30:36.858Z,67.03
2018-05-25T06:31:36.848Z,67.13
2018-05-25T06:32:36.843Z,67.80
2018-05-25T06:33:36.841Z,67.90
2018-05-25T06:34:36.837Z,67.13
2018-05-25T06:35:36.837Z,66.84
2018-05-25T06:36:36.832Z,67.80
2018-05-25T06:37:36.828Z,68.47
2018-05-25T06:38:36.824Z,67.90
2018-05-25T06:39:36.820Z,68.28
2018-05-25T06:40:36.814Z,67.32
2018-05-25T06:41:36.808Z,67.32
2018-05-25T06:42:36.806Z,66.84
2018-05-25T06:43:36.804Z,67.54
2018-05-25T06:44:36.799Z,68.31
2018-05-25T06:45:36.802Z,68.79
2018-05-25T06:46:36.799Z,68.89
2018-05-25T06:47:36.786Z,69.95
2018-05-25T06:48:36.787Z,69.95
2018-05-25T06:49:36.792Z,70.43
2018-05-25T06:50:36.807Z,70.90
2018-05-25T06:51:36.781Z,70.17
2018-05-25T06:52:36.770Z,70.56
2018-05-25T06:53:36.769Z,70.56
2018-05-25T06:54:36.763Z,71.81
2018-05-25T06:55:36.762Z,73.15
2018-05-25T06:56:36.762Z,71.94
2018-05-25T06:57:36.760Z,72.80
2018-05-25T06:58:36.754Z,74.05
2018-05-25T06:59:36.754Z,73.09
2018-05-25T07:00:36.752Z,72.42
2018-05-25T07:01:36.747Z,72.32
2018-05-25T07:02:36.743Z,72.23
2018-05-25T07:03:37.010Z,72.94
2018-05-25T07:04:36.835Z,73.32
2018-05-25T07:05:36.743Z,76.11
2018-05-25T07:06:36.743Z,74.38
2018-05-25T07:07:36.759Z,76.15
2018-05-25T07:08:36.732Z,76.73
2018-05-25T07:09:36.734Z,74.38
2018-05-25T07:10:36.733Z,74.80
2018-05-25T07:11:36.731Z,74.03
2018-05-25T07:12:36.731Z,78.21
2018-05-25T07:13:36.735Z,75.99
2018-05-25T07:14:36.728Z,78.88
2018-05-25T07:15:36.732Z,77.76
2018-05-25T07:16:36.732Z,78.11
2018-05-25T07:17:36.734Z,78.02
2018-05-25T07:18:36.727Z,77.63
2018-05-25T07:19:36.726Z,77.63
2018-05-25T07:20:36.728Z,77.58
2018-05-25T07:21:37.303Z,79.02
2018-05-25T07:22:36.726Z,78.11
2018-05-25T07:23:36.730Z,77.63
2018-05-25T07:24:36.745Z,77.06
2018-05-25T07:25:36.736Z,78.31
2018-05-25T07:26:36.734Z,77.44
2018-05-25T07:27:36.742Z,76.51
2018-05-25T07:28:36.733Z,78.92
2018-05-25T07:29:36.766Z,78.86
2018-05-25T07:30:36.749Z,78.96
2018-05-25T07:31:36.764Z,80.51
2018-05-25T07:32:36.751Z,80.02
2018-05-25T07:33:36.753Z,79.44
2018-05-25T07:34:36.751Z,80.31
2018-05-25T07:35:36.783Z,80.64
2018-05-25T07:36:36.767Z,80.64
2018-05-25T07:37:36.771Z,79.77
2018-05-25T07:38:36.765Z,80.12
2018-05-25T07:39:36.773Z,79.44
2018-05-25T07:40:36.794Z,79.77
2018-05-25T07:41:36.762Z,79.68
2018-05-25T07:42:36.762Z,79.10
2018-05-25T07:43:36.771Z,79.93
2018-05-25T07:44:36.769Z,79.16
2018-05-25T07:45:36.784Z,79.93
2018-05-25T07:46:36.776Z,78.67
2018-05-25T07:47:36.782Z,78.58
2018-05-25T07:48:36.779Z,77.51
2018-05-25T07:49:36.779Z,79.10
2018-05-25T07:50:36.780Z,79.77
2018-05-25T07:51:36.780Z,80.97
2018-05-25T07:52:36.785Z,79.72
2018-05-25T07:53:36.787Z,79.62
2018-05-25T07:54:36.786Z,80.05
2018-05-25T07:55:36.797Z,81.01
2018-05-25T07:56:36.794Z,81.01
2018-05-25T07:57:36.795Z,80.33
2018-05-25T07:58:36.811Z,78.89
2018-05-25T07:59:36.799Z,79.47
2018-05-25T08:00:36.806Z,80.05
2018-05-25T08:01:36.808Z,80.05
2018-05-25T08:02:36.810Z,80.58
2018-05-25T08:03:36.812Z,78.85
2018-05-25T08:04:36.811Z,79.24
2018-05-25T08:05:36.813Z,79.75
2018-05-25T08:06:36.817Z,80.28
2018-05-25T08:07:36.824Z,81.19
2018-05-25T08:08:36.827Z,80.12
2018-05-25T08:09:36.834Z,81.32
2018-05-25T08:10:36.829Z,80.16
2018-05-25T08:11:36.833Z,78.71
2018-05-25T08:12:36.850Z,78.87
2018-05-25T08:13:36.863Z,78.96
2018-05-25T08:14:36.861Z,78.77
2018-05-25T08:15:36.861Z,78.83
2018-05-25T08:16:36.854Z,78.89
2018-05-25T08:17:36.855Z,78.69
2018-05-25T08:18:36.864Z,78.89
2018-05-25T08:19:36.869Z,78.99
2018-05-25T08:20:36.870Z,79.56
2018-05-25T08:21:36.881Z,79.89
2018-05-25T08:22:36.883Z,78.92
2018-05-25T08:23:36.888Z,79.99
2018-05-25T08:24:36.901Z,79.12
2018-05-25T08:25:36.904Z,79.12
2018-05-25T08:26:36.900Z,79.31
2018-05-25T08:27:36.914Z,78.73
2018-05-25T08:28:36.922Z,79.41
2018-05-25T08:29:36.918Z,79.31
2018-05-25T08:30:36.926Z,79.41
2018-05-25T08:31:36.928Z,78.34
2018-05-25T08:32:36.948Z,79.50
2018-05-25T08:33:36.940Z,78.34
2018-05-25T08:34:36.947Z,79.54
2018-05-25T08:35:36.956Z,78.64
2018-05-25T08:36:36.960Z,78.73
2018-05-25T08:37:36.962Z,79.12
2018-05-25T08:38:36.974Z,80.03
2018-05-25T08:39:36.975Z,78.85
2018-05-25T08:40:36.987Z,78.79
2018-05-25T08:41:36.995Z,78.69
2018-05-25T08:42:36.991Z,76.60
2018-05-25T08:43:37.003Z,75.24
2018-05-25T08:44:37.011Z,75.31
2018-05-25T08:45:37.019Z,75.89
2018-05-25T08:46:37.026Z,75.98
2018-05-25T08:47:37.021Z,75.83
2018-05-25T08:48:37.042Z,74.51
2018-05-25T08:49:37.044Z,72.80
2018-05-25T08:50:37.042Z,72.45
2018-05-25T08:51:37.059Z,69.54
2018-05-25T08:52:37.068Z,70.80
2018-05-25T08:53:37.064Z,71.58
2018-05-25T08:54:37.069Z,72.00
2018-05-25T08:55:37.082Z,69.60
2018-05-25T08:56:37.089Z,67.80
2018-05-25T08:57:37.098Z,66.72
2018-05-25T08:58:37.106Z,67.99
2018-05-25T08:59:37.111Z,65.69
2018-05-25T09:00:37.122Z,64.78
2018-05-25T09:01:37.127Z,64.49
2018-05-25T09:02:37.146Z,65.37
2018-05-25T09:03:37.143Z,65.47
2018-05-25T09:04:37.149Z,64.23
2018-05-25T09:05:37.157Z,64.17
2018-05-25T09:06:37.159Z,63.00
2018-05-25T09:07:37.173Z,61.41
2018-05-25T09:08:37.192Z,63.65
2018-05-25T09:09:37.187Z,64.43
2018-05-25T09:10:37.247Z,66.82
2018-05-25T09:11:37.198Z,68.86
2018-05-25T09:12:37.879Z,69.34
2018-05-25T09:13:37.281Z,69.60
2018-05-25T09:14:37.239Z,70.51
2018-05-25T09:15:37.235Z,69.41
2018-05-25T09:16:37.264Z,69.15
2018-05-25T09:17:37.264Z,65.69
2018-05-25T09:18:37.257Z,64.30
2018-05-25T09:19:37.269Z,65.40
2018-05-25T09:20:37.288Z,63.55
2018-05-25T09:21:37.291Z,63.42
2018-05-25T09:22:37.323Z,65.69
2018-05-25T09:23:37.301Z,66.05
2018-05-25T09:24:37.308Z,65.27
2018-05-25T09:25:37.330Z,65.27
2018-05-25T09:26:37.329Z,65.33
2018-05-25T09:27:37.334Z,67.54
2018-05-25T09:28:37.346Z,66.56
2018-05-25T09:29:37.351Z,67.14
2018-05-25T09:30:37.359Z,67.18
2018-05-25T09:31:37.372Z,66.60
2018-05-25T09:32:37.383Z,66.63
2018-05-25T09:33:37.394Z,67.63
2018-05-25T09:34:37.398Z,63.49
2018-05-25T09:35:37.413Z,62.10
2018-05-25T09:36:37.419Z,65.30
2018-05-25T09:37:37.429Z,63.65
2018-05-25T09:38:37.442Z,64.20
2018-05-25T09:39:37.446Z,64.88
2018-05-25T09:40:37.453Z,65.40
2018-05-25T09:41:37.464Z,63.59
2018-05-25T09:42:37.475Z,61.12
2018-05-25T09:43:37.485Z,62.48
2018-05-25T09:44:37.496Z,64.43
2018-05-25T09:45:37.504Z,60.80
2018-05-25T09:46:37.511Z,62.42
2018-05-25T09:47:37.526Z,63.56
2018-05-25T09:48:37.530Z,65.27
2018-05-25T09:49:37.538Z,66.50
2018-05-25T09:50:37.553Z,67.57
2018-05-25T09:51:37.577Z,68.44
2018-05-25T09:52:37.571Z,67.27
2018-05-25T09:53:37.580Z,67.47
2018-05-25T09:54:37.585Z,69.24
2018-05-25T09:55:37.593Z,67.47
2018-05-25T09:56:37.614Z,66.17
2018-05-25T09:57:37.619Z,65.11
2018-05-25T09:58:37.639Z,65.43
2018-05-25T09:59:37.645Z,65.53
2018-05-25T10:00:37.653Z,64.14
2018-05-25T10:01:37.661Z,64.53
2018-05-25T10:02:37.667Z,65.89
2018-05-25T10:03:37.676Z,64.88
2018-05-25T10:04:37.697Z,66.79
2018-05-25T10:05:37.692Z,67.08
2018-05-25T10:06:37.727Z,66.02
2018-05-25T10:07:37.736Z,67.89
2018-05-25T10:08:37.760Z,65.14
2018-05-25T10:09:37.730Z,63.52
2018-05-25T10:10:37.729Z,64.69
2018-05-25T10:11:37.740Z,63.10
2018-05-25T10:12:37.749Z,60.79
2018-05-25T10:13:37.756Z,59.17
2018-05-25T10:14:37.763Z,58.45
2018-05-25T10:15:37.773Z,56.52
2018-05-25T10:16:37.780Z,54.36
2018-05-25T10:17:37.789Z,55.69
2018-05-25T10:18:37.809Z,57.45
2018-05-25T10:19:37.813Z,55.66
2018-05-25T10:20:37.822Z,57.29
2018-05-25T10:21:37.839Z,58.75
2018-05-25T10:22:37.839Z,57.36
2018-05-25T10:23:37.846Z,58.59
2018-05-25T10:24:37.856Z,60.05
2018-05-25T10:25:37.869Z,59.28
2018-05-25T10:26:37.876Z,61.02
2018-05-25T10:27:37.894Z,60.96
2018-05-25T10:28:37.894Z,59.11
2018-05-25T10:29:37.902Z,58.21
2018-05-25T10:30:37.915Z,59.70
2018-05-25T10:31:37.924Z,60.64
2018-05-25T10:32:37.928Z,62.59
2018-05-25T10:33:37.943Z,63.65
2018-05-25T10:34:37.947Z,62.81
2018-05-25T10:35:37.955Z,61.77
2018-05-25T10:36:37.966Z,62.45
2018-05-25T10:37:37.968Z,59.95
2018-05-25T10:38:37.982Z,58.86
2018-05-25T10:39:37.988Z,59.44
2018-05-25T10:40:38.009Z,60.00
2018-05-25T10:41:37.999Z,60.48
2018-05-25T10:42:38.008Z,61.49
2018-05-25T10:43:38.013Z,63.43
2018-05-25T10:44:38.029Z,62.42
2018-05-25T10:45:38.036Z,60.80
2018-05-25T10:46:38.060Z,58.59
2018-05-25T10:47:38.047Z,56.61
2018-05-25T10:48:38.063Z,56.05
2018-05-25T10:49:38.059Z,55.79
2018-05-25T10:50:38.073Z,54.43
2018-05-25T10:51:38.072Z,55.25
2018-05-25T10:52:38.083Z,57.75
2018-05-25T10:53:38.087Z,58.31
2018-05-25T10:54:38.100Z,58.86
2018-05-25T10:55:38.101Z,61.52
2018-05-25T10:56:38.108Z,63.20
2018-05-25T10:57:38.115Z,66.50
2018-05-25T10:58:38.122Z,66.44
2018-05-25T10:59:38.133Z,66.60
2018-05-25T11:00:38.140Z,66.60
2018-05-25T11:01:38.148Z,67.11
2018-05-25T11:02:38.152Z,65.63
2018-05-25T11:03:38.168Z,66.02
2018-05-25T11:04:38.169Z,65.92
2018-05-25T11:05:38.170Z,66.69
2018-05-25T11:06:38.184Z,66.82
2018-05-25T11:07:38.184Z,65.05
2018-05-25T11:08:38.197Z,62.87
2018-05-25T11:09:38.212Z,61.71
2018-05-25T11:10:38.203Z,60.93
2018-05-25T11:11:38.208Z,60.83
2018-05-25T11:12:38.219Z,60.41
2018-05-25T11:13:38.231Z,61.58
2018-05-25T11:14:38.235Z,61.55
2018-05-25T11:15:38.235Z,61.74
2018-05-25T11:16:38.241Z,62.88
2018-05-25T11:17:38.245Z,63.91
2018-05-25T11:18:38.251Z,64.27
2018-05-25T11:19:38.263Z,66.63
2018-05-25T11:20:38.911Z,64.40
2018-05-25T11:21:38.275Z,64.23
2018-05-25T11:22:38.275Z,63.29
2018-05-25T11:23:38.284Z,61.35
2018-05-25T11:24:38.287Z,61.58
2018-05-25T11:25:38.300Z,60.93
2018-05-25T11:26:38.302Z,58.21
2018-05-25T11:27:38.310Z,58.37
2018-05-25T11:28:38.309Z,59.44
2018-05-25T11:29:38.317Z,59.70
2018-05-25T11:30:38.322Z,60.94
2018-05-25T11:31:38.326Z,62.10
2018-05-25T11:32:38.342Z,61.61
2018-05-25T11:33:38.340Z,62.68
2018-05-25T11:34:38.347Z,62.59
2018-05-25T11:35:38.351Z,61.39
2018-05-25T11:36:38.358Z,62.85
2018-05-25T11:37:38.358Z,63.72
2018-05-25T11:38:38.366Z,62.46
2018-05-25T11:39:38.369Z,62.52
2018-05-25T11:40:38.383Z,64.62
2018-05-25T11:41:38.403Z,65.43
2018-05-25T11:42:38.435Z,65.92
2018-05-25T11:43:38.413Z,65.17
2018-05-25T11:44:38.463Z,64.20
2018-05-25T11:45:38.456Z,62.55
2018-05-25T11:46:38.419Z,62.55
2018-05-25T11:47:38.410Z,62.95
2018-05-25T11:48:38.478Z,63.04
2018-05-25T11:49:38.468Z,61.68
2018-05-25T11:50:38.452Z,61.55
2018-05-25T11:51:38.464Z,62.82
2018-05-25T11:52:38.483Z,62.30
2018-05-25T11:53:38.471Z,63.17
2018-05-25T11:54:38.488Z,64.24
2018-05-25T11:55:38.445Z,65.01
2018-05-25T11:56:38.447Z,64.92
2018-05-25T11:57:38.454Z,64.79
2018-05-25T11:58:38.459Z,65.66
2018-05-25T11:59:38.480Z,66.05
2018-05-25T12:00:38.467Z,66.72
2018-05-25T12:01:38.470Z,66.08
2018-05-25T12:02:38.470Z,65.79
2018-05-25T12:03:38.474Z,66.08
2018-05-25T12:04:38.481Z,66.24
2018-05-25T12:05:38.483Z,66.63
2018-05-25T12:06:38.525Z,67.02
2018-05-25T12:07:38.493Z,67.11
2018-05-25T12:08:38.496Z,66.72
2018-05-25T12:09:38.500Z,67.11
2018-05-25T12:10:38.499Z,66.92
2018-05-25T12:11:38.504Z,67.21
2018-05-25T12:12:38.503Z,67.11
2018-05-25T12:13:38.511Z,67.02
2018-05-25T12:14:38.515Z,67.02
2018-05-25T12:15:38.519Z,65.85
2018-05-25T12:16:38.520Z,65.89
2018-05-25T12:17:38.518Z,64.82
2018-05-25T12:18:38.524Z,64.92
2018-05-25T12:19:38.524Z,65.20
2018-05-25T12:20:38.529Z,65.98
2018-05-25T12:21:38.534Z,65.20
2018-05-25T12:22:38.535Z,66.75
2018-05-25T12:23:38.540Z,66.34
2018-05-25T12:24:38.539Z,67.53
2018-05-25T12:25:38.545Z,67.72
2018-05-25T12:26:38.545Z,67.95
2018-05-25T12:27:38.550Z,66.56
2018-05-25T12:28:38.554Z,66.89
2018-05-25T12:29:38.561Z,66.02
2018-05-25T12:30:38.566Z,65.69
2018-05-25T12:31:38.567Z,66.66
2018-05-25T12:32:38.573Z,66.66
2018-05-25T12:33:38.574Z,67.05
2018-05-25T12:34:38.581Z,67.27
2018-05-25T12:35:38.583Z,66.20
2018-05-25T12:36:38.596Z,66.89
2018-05-25T12:37:38.589Z,66.99
2018-05-25T12:38:38.593Z,66.53
2018-05-25T12:39:38.595Z,65.75
2018-05-25T12:40:38.597Z,65.08
2018-05-25T12:41:38.602Z,64.98
2018-05-25T12:42:38.636Z,65.17
2018-05-25T12:43:38.612Z,65.40
2018-05-25T12:44:38.615Z,64.14
2018-05-25T12:45:38.619Z,63.85
2018-05-25T12:46:38.638Z,63.62
2018-05-25T12:47:38.629Z,64.40
2018-05-25T12:48:38.632Z,64.37
2018-05-25T12:49:38.636Z,65.05
2018-05-25T12:50:38.640Z,66.24
2018-05-25T12:51:38.649Z,65.24
2018-05-25T12:52:38.649Z,66.14